sensor_id;sensor_type;location;lat;lon;timestamp;pressure;altitude;pressure_sealevel;temperature;humidity
12358;BME280;6243;51.244;6.774;2023-08-01T00:01:55;115150.97;;;-141.28;47.84
12358;BME280;6243;51.244;6.774;2023-08-01T00:04:20;115150.97;;;-141.28;45.57
12358;BME280;6243;51.244;6.774;2023-08-01T00:06:46;115150.97;;;-141.28;44.43
12358;BME280;6243;51.244;6.774;2023-08-01T00:09:13;115150.97;;;-141.28;49.04
12358;BME280;6243;51.244;6.774;2023-08-01T00:11:38;115150.97;;;-141.28;44.26
12358;BME280;6243;51.244;6.774;2023-08-01T00:14:04;115150.97;;;-141.28;42.16
12358;BME280;6243;51.244;6.774;2023-08-01T00:16:29;115150.97;;;-141.28;41.63
12358;BME280;6243;51.244;6.774;2023-08-01T00:18:55;115150.97;;;-141.28;41.81
12358;BME280;6243;51.244;6.774;2023-08-01T00:21:21;115150.97;;;-141.28;41.64
12358;BME280;6243;51.244;6.774;2023-08-01T00:23:46;115150.97;;;-141.28;41.29
12358;BME280;6243;51.244;6.774;2023-08-01T00:26:13;115150.97;;;-141.28;41.59
12358;BME280;6243;51.244;6.774;2023-08-01T00:28:38;115150.97;;;-141.28;41.07
12358;BME280;6243;51.244;6.774;2023-08-01T00:31:05;115150.97;;;-141.28;41.17
12358;BME280;6243;51.244;6.774;2023-08-01T00:33:31;115150.97;;;-141.28;41.96
12358;BME280;6243;51.244;6.774;2023-08-01T00:35:56;115150.97;;;-141.28;42.19
12358;BME280;6243;51.244;6.774;2023-08-01T00:38:22;115150.97;;;-141.28;41.29
12358;BME280;6243;51.244;6.774;2023-08-01T00:40:47;115150.97;;;-141.28;40.54
12358;BME280;6243;51.244;6.774;2023-08-01T00:43:14;115150.97;;;-141.28;40.44
12358;BME280;6243;51.244;6.774;2023-08-01T00:45:40;115150.97;;;-141.28;41.64
12358;BME280;6243;51.244;6.774;2023-08-01T00:48:05;115150.97;;;-141.28;40.92
12358;BME280;6243;51.244;6.774;2023-08-01T00:50:31;115150.97;;;-141.28;39.62
12358;BME280;6243;51.244;6.774;2023-08-01T00:52:57;115150.97;;;-141.28;39.49
12358;BME280;6243;51.244;6.774;2023-08-01T00:55:22;115150.97;;;-141.28;39.40
12358;BME280;6243;51.244;6.774;2023-08-01T00:57:48;115150.97;;;-141.28;39.67
12358;BME280;6243;51.244;6.774;2023-08-01T01:00:15;115150.97;;;-141.28;40.81
12358;BME280;6243;51.244;6.774;2023-08-01T01:02:41;115150.97;;;-141.28;39.30
12358;BME280;6243;51.244;6.774;2023-08-01T01:05:06;115150.97;;;-141.28;39.47
12358;BME280;6243;51.244;6.774;2023-08-01T01:07:33;115150.97;;;-141.28;38.94
12358;BME280;6243;51.244;6.774;2023-08-01T01:09:58;115150.97;;;-141.28;38.92
12358;BME280;6243;51.244;6.774;2023-08-01T01:12:24;115150.97;;;-141.28;39.40
12358;BME280;6243;51.244;6.774;2023-08-01T01:14:49;115150.97;;;-141.28;38.88
12358;BME280;6243;51.244;6.774;2023-08-01T01:17:16;115150.97;;;-141.28;37.25
12358;BME280;6243;51.244;6.774;2023-08-01T01:19:42;115150.97;;;-141.28;36.88
12358;BME280;6243;51.244;6.774;2023-08-01T01:22:10;115150.97;;;-141.28;35.64
12358;BME280;6243;51.244;6.774;2023-08-01T01:24:36;115150.97;;;-141.28;36.50
12358;BME280;6243;51.244;6.774;2023-08-01T01:27:03;115150.97;;;-141.28;33.73
12358;BME280;6243;51.244;6.774;2023-08-01T01:29:30;115150.97;;;-141.28;33.22
12358;BME280;6243;51.244;6.774;2023-08-01T01:31:56;115150.97;;;-141.28;31.76
12358;BME280;6243;51.244;6.774;2023-08-01T01:34:22;115150.97;;;-141.28;37.08
12358;BME280;6243;51.244;6.774;2023-08-01T01:36:48;115150.97;;;-141.28;37.87
12358;BME280;6243;51.244;6.774;2023-08-01T01:39:15;115150.97;;;-141.28;38.35
12358;BME280;6243;51.244;6.774;2023-08-01T01:41:40;115150.97;;;-141.28;38.15
12358;BME280;6243;51.244;6.774;2023-08-01T01:44:06;115150.97;;;-141.28;30.89
12358;BME280;6243;51.244;6.774;2023-08-01T01:46:31;115150.97;;;-141.28;32.81
12358;BME280;6243;51.244;6.774;2023-08-01T01:48:57;115150.97;;;-141.28;36.47
12358;BME280;6243;51.244;6.774;2023-08-01T01:51:22;115150.97;;;-141.28;37.85
12358;BME280;6243;51.244;6.774;2023-08-01T01:53:48;115150.97;;;-141.28;40.39
12358;BME280;6243;51.244;6.774;2023-08-01T01:56:14;115150.97;;;-141.28;40.52
12358;BME280;6243;51.244;6.774;2023-08-01T01:58:40;115150.97;;;-141.28;40.20
12358;BME280;6243;51.244;6.774;2023-08-01T02:01:05;115150.97;;;-141.28;40.13
12358;BME280;6243;51.244;6.774;2023-08-01T02:03:31;115150.97;;;-141.28;39.89
12358;BME280;6243;51.244;6.774;2023-08-01T02:05:56;115150.97;;;-141.28;39.95
12358;BME280;6243;51.244;6.774;2023-08-01T02:08:22;115150.97;;;-141.28;39.83
12358;BME280;6243;51.244;6.774;2023-08-01T02:10:48;115150.97;;;-141.28;40.28
12358;BME280;6243;51.244;6.774;2023-08-01T02:13:15;115150.97;;;-141.28;39.74
12358;BME280;6243;51.244;6.774;2023-08-01T02:15:40;115150.97;;;-141.28;39.79
12358;BME280;6243;51.244;6.774;2023-08-01T02:18:06;115150.97;;;-141.28;39.77
12358;BME280;6243;51.244;6.774;2023-08-01T02:20:31;115150.97;;;-141.28;39.85
12358;BME280;6243;51.244;6.774;2023-08-01T02:22:57;115150.97;;;-141.28;39.29
12358;BME280;6243;51.244;6.774;2023-08-01T02:25:22;115150.97;;;-141.28;39.53
12358;BME280;6243;51.244;6.774;2023-08-01T02:27:48;115150.97;;;-141.28;39.24
12358;BME280;6243;51.244;6.774;2023-08-01T02:30:18;115150.97;;;-141.28;38.23
12358;BME280;6243;51.244;6.774;2023-08-01T02:32:43;115150.97;;;-141.28;38.38
12358;BME280;6243;51.244;6.774;2023-08-01T02:35:09;115150.97;;;-141.28;38.37
12358;BME280;6243;51.244;6.774;2023-08-01T02:37:34;115150.97;;;-141.28;38.42
12358;BME280;6243;51.244;6.774;2023-08-01T02:40:01;115150.97;;;-141.28;37.65
12358;BME280;6243;51.244;6.774;2023-08-01T02:42:26;115150.97;;;-141.28;36.94
12358;BME280;6243;51.244;6.774;2023-08-01T02:44:52;115150.97;;;-141.28;37.14
12358;BME280;6243;51.244;6.774;2023-08-01T02:47:19;115150.97;;;-141.28;36.78
12358;BME280;6243;51.244;6.774;2023-08-01T02:49:44;115150.97;;;-141.28;36.11
12358;BME280;6243;51.244;6.774;2023-08-01T02:52:10;115150.97;;;-141.28;36.62
12358;BME280;6243;51.244;6.774;2023-08-01T02:54:35;115150.97;;;-141.28;36.29
12358;BME280;6243;51.244;6.774;2023-08-01T02:57:01;115150.97;;;-141.28;36.77
12358;BME280;6243;51.244;6.774;2023-08-01T02:59:26;115150.97;;;-141.28;37.41
12358;BME280;6243;51.244;6.774;2023-08-01T03:01:52;115150.97;;;-141.28;36.96
12358;BME280;6243;51.244;6.774;2023-08-01T03:04:19;115150.97;;;-141.28;37.98
12358;BME280;6243;51.244;6.774;2023-08-01T03:06:44;115150.97;;;-141.28;38.25
12358;BME280;6243;51.244;6.774;2023-08-01T03:09:10;115150.97;;;-141.28;37.80
12358;BME280;6243;51.244;6.774;2023-08-01T03:11:36;115150.97;;;-141.28;37.57
12358;BME280;6243;51.244;6.774;2023-08-01T03:14:01;115150.97;;;-141.28;38.77
12358;BME280;6243;51.244;6.774;2023-08-01T03:16:27;115150.97;;;-141.28;39.09
12358;BME280;6243;51.244;6.774;2023-08-01T03:18:52;115150.97;;;-141.28;37.72
12358;BME280;6243;51.244;6.774;2023-08-01T03:21:19;115150.97;;;-141.28;38.74
12358;BME280;6243;51.244;6.774;2023-08-01T03:23:45;115150.97;;;-141.28;38.45
12358;BME280;6243;51.244;6.774;2023-08-01T03:26:10;115150.97;;;-141.28;37.31
12358;BME280;6243;51.244;6.774;2023-08-01T03:28:36;115150.97;;;-141.28;38.61
12358;BME280;6243;51.244;6.774;2023-08-01T03:31:01;115150.97;;;-141.28;38.47
12358;BME280;6243;51.244;6.774;2023-08-01T03:33:27;115150.97;;;-141.28;37.40
12358;BME280;6243;51.244;6.774;2023-08-01T03:35:52;115150.97;;;-141.28;38.99
12358;BME280;6243;51.244;6.774;2023-08-01T03:38:19;115150.97;;;-141.28;38.75
12358;BME280;6243;51.244;6.774;2023-08-01T03:40:45;115150.97;;;-141.28;37.96
12358;BME280;6243;51.244;6.774;2023-08-01T03:43:10;115150.97;;;-141.28;38.84
12358;BME280;6243;51.244;6.774;2023-08-01T03:45:36;115150.97;;;-141.28;37.26
12358;BME280;6243;51.244;6.774;2023-08-01T03:48:01;115150.97;;;-141.28;37.88
12358;BME280;6243;51.244;6.774;2023-08-01T03:50:27;115150.97;;;-141.28;37.31
12358;BME280;6243;51.244;6.774;2023-08-01T03:52:52;115150.97;;;-141.28;37.24
12358;BME280;6243;51.244;6.774;2023-08-01T03:55:19;115150.97;;;-141.28;37.39
12358;BME280;6243;51.244;6.774;2023-08-01T03:57:45;115150.97;;;-141.28;37.88
12358;BME280;6243;51.244;6.774;2023-08-01T04:00:11;115150.97;;;-141.28;37.85
12358;BME280;6243;51.244;6.774;2023-08-01T04:02:36;115150.97;;;-141.28;38.54
12358;BME280;6243;51.244;6.774;2023-08-01T04:05:02;115150.97;;;-141.28;38.29
12358;BME280;6243;51.244;6.774;2023-08-01T04:07:27;115150.97;;;-141.28;37.49
12358;BME280;6243;51.244;6.774;2023-08-01T04:09:53;115150.97;;;-141.28;38.75
12358;BME280;6243;51.244;6.774;2023-08-01T04:12:20;115150.97;;;-141.28;39.12
12358;BME280;6243;51.244;6.774;2023-08-01T04:14:45;115150.97;;;-141.28;37.80
12358;BME280;6243;51.244;6.774;2023-08-01T04:17:11;115150.97;;;-141.28;36.99
12358;BME280;6243;51.244;6.774;2023-08-01T04:19:36;115150.97;;;-141.28;38.43
12358;BME280;6243;51.244;6.774;2023-08-01T04:22:02;115150.97;;;-141.28;38.67
12358;BME280;6243;51.244;6.774;2023-08-01T04:24:28;115150.97;;;-141.28;38.61
12358;BME280;6243;51.244;6.774;2023-08-01T04:26:53;115150.97;;;-141.28;38.23
12358;BME280;6243;51.244;6.774;2023-08-01T04:29:20;115150.97;;;-141.28;37.87
12358;BME280;6243;51.244;6.774;2023-08-01T04:31:45;115150.97;;;-141.28;37.52
12358;BME280;6243;51.244;6.774;2023-08-01T04:34:11;115150.97;;;-141.28;37.88
12358;BME280;6243;51.244;6.774;2023-08-01T04:36:36;115150.97;;;-141.28;37.41
12358;BME280;6243;51.244;6.774;2023-08-01T04:39:02;115150.97;;;-141.28;38.53
12358;BME280;6243;51.244;6.774;2023-08-01T04:41:27;115150.97;;;-141.28;37.42
12358;BME280;6243;51.244;6.774;2023-08-01T04:43:53;115150.97;;;-141.28;38.29
12358;BME280;6243;51.244;6.774;2023-08-01T04:46:20;115150.97;;;-141.28;38.05
12358;BME280;6243;51.244;6.774;2023-08-01T04:48:45;115150.97;;;-141.28;38.32
12358;BME280;6243;51.244;6.774;2023-08-01T04:51:11;115150.97;;;-141.28;38.15
12358;BME280;6243;51.244;6.774;2023-08-01T04:53:36;115150.97;;;-141.28;38.03
12358;BME280;6243;51.244;6.774;2023-08-01T04:56:02;115150.97;;;-141.28;37.85
12358;BME280;6243;51.244;6.774;2023-08-01T04:58:28;115150.97;;;-141.28;37.26
12358;BME280;6243;51.244;6.774;2023-08-01T05:00:53;115150.97;;;-141.28;36.99
12358;BME280;6243;51.244;6.774;2023-08-01T05:03:20;115150.97;;;-141.28;37.52
12358;BME280;6243;51.244;6.774;2023-08-01T05:05:45;115150.97;;;-141.28;37.37
12358;BME280;6243;51.244;6.774;2023-08-01T05:08:11;115150.97;;;-141.28;36.66
12358;BME280;6243;51.244;6.774;2023-08-01T05:10:37;115150.97;;;-141.28;38.28
12358;BME280;6243;51.244;6.774;2023-08-01T05:13:02;115150.97;;;-141.28;36.87
12358;BME280;6243;51.244;6.774;2023-08-01T05:15:27;115150.97;;;-141.28;38.15
12358;BME280;6243;51.244;6.774;2023-08-01T05:17:53;115150.97;;;-141.28;37.63
12358;BME280;6243;51.244;6.774;2023-08-01T05:20:20;115150.97;;;-141.28;37.19
12358;BME280;6243;51.244;6.774;2023-08-01T05:22:45;115150.97;;;-141.28;38.29
12358;BME280;6243;51.244;6.774;2023-08-01T05:25:11;115150.97;;;-141.28;39.08
12358;BME280;6243;51.244;6.774;2023-08-01T05:27:36;115150.97;;;-141.28;37.52
12358;BME280;6243;51.244;6.774;2023-08-01T05:30:02;115150.97;;;-141.28;37.78
12358;BME280;6243;51.244;6.774;2023-08-01T05:32:28;115150.97;;;-141.28;38.15
12358;BME280;6243;51.244;6.774;2023-08-01T05:34:53;115150.97;;;-141.28;38.11
12358;BME280;6243;51.244;6.774;2023-08-01T05:37:20;115150.97;;;-141.28;40.03
12358;BME280;6243;51.244;6.774;2023-08-01T05:39:46;115150.97;;;-141.28;39.60
12358;BME280;6243;51.244;6.774;2023-08-01T05:42:11;115150.97;;;-141.28;42.13
12358;BME280;6243;51.244;6.774;2023-08-01T05:44:37;115150.97;;;-141.28;38.83
12358;BME280;6243;51.244;6.774;2023-08-01T05:47:03;115150.97;;;-141.28;37.76
12358;BME280;6243;51.244;6.774;2023-08-01T05:49:28;115150.97;;;-141.28;39.86
12358;BME280;6243;51.244;6.774;2023-08-01T05:51:54;115150.97;;;-141.28;38.90
12358;BME280;6243;51.244;6.774;2023-08-01T05:54:21;115150.97;;;-141.28;40.56
12358;BME280;6243;51.244;6.774;2023-08-01T05:56:46;115150.97;;;-141.28;40.05
12358;BME280;6243;51.244;6.774;2023-08-01T05:59:12;115150.97;;;-141.28;40.23
12358;BME280;6243;51.244;6.774;2023-08-01T06:01:37;115150.97;;;-141.28;39.60
12358;BME280;6243;51.244;6.774;2023-08-01T06:04:03;115150.97;;;-141.28;39.36
12358;BME280;6243;51.244;6.774;2023-08-01T06:06:29;115150.97;;;-141.28;39.78
12358;BME280;6243;51.244;6.774;2023-08-01T06:08:54;115150.97;;;-141.28;39.52
12358;BME280;6243;51.244;6.774;2023-08-01T06:11:21;115150.97;;;-141.28;39.83
12358;BME280;6243;51.244;6.774;2023-08-01T06:13:47;115150.97;;;-141.28;38.71
12358;BME280;6243;51.244;6.774;2023-08-01T06:16:13;115150.97;;;-141.28;39.57
12358;BME280;6243;51.244;6.774;2023-08-01T06:18:38;115150.97;;;-141.28;38.89
12358;BME280;6243;51.244;6.774;2023-08-01T06:21:04;115150.97;;;-141.28;39.06
12358;BME280;6243;51.244;6.774;2023-08-01T06:23:29;115150.97;;;-141.28;39.22
12358;BME280;6243;51.244;6.774;2023-08-01T06:25:55;115150.97;;;-141.28;39.32
12358;BME280;6243;51.244;6.774;2023-08-01T06:28:21;115150.97;;;-141.28;32.04
12358;BME280;6243;51.244;6.774;2023-08-01T06:30:47;115150.97;;;-141.28;30.87
12358;BME280;6243;51.244;6.774;2023-08-01T06:33:13;115150.97;;;-141.28;30.56
12358;BME280;6243;51.244;6.774;2023-08-01T06:35:38;115150.97;;;-141.28;31.40
12358;BME280;6243;51.244;6.774;2023-08-01T06:38:04;115150.97;;;-141.28;30.96
12358;BME280;6243;51.244;6.774;2023-08-01T06:40:29;115150.97;;;-141.28;30.46
12358;BME280;6243;51.244;6.774;2023-08-01T06:42:55;115150.97;;;-141.28;30.87
12358;BME280;6243;51.244;6.774;2023-08-01T06:45:21;115150.97;;;-141.28;33.37
12358;BME280;6243;51.244;6.774;2023-08-01T06:47:47;115150.97;;;-141.28;39.63
12358;BME280;6243;51.244;6.774;2023-08-01T06:50:12;115150.97;;;-141.28;40.36
12358;BME280;6243;51.244;6.774;2023-08-01T06:52:38;115150.97;;;-141.28;40.02
12358;BME280;6243;51.244;6.774;2023-08-01T06:55:04;115150.97;;;-141.28;40.15
12358;BME280;6243;51.244;6.774;2023-08-01T06:57:30;115150.97;;;-141.28;39.96
12358;BME280;6243;51.244;6.774;2023-08-01T06:59:55;115150.97;;;-141.28;41.10
12358;BME280;6243;51.244;6.774;2023-08-01T07:02:22;115150.97;;;-141.28;38.98
12358;BME280;6243;51.244;6.774;2023-08-01T07:04:48;115150.97;;;-141.28;40.21
12358;BME280;6243;51.244;6.774;2023-08-01T07:07:13;115150.97;;;-141.28;39.59
12358;BME280;6243;51.244;6.774;2023-08-01T07:09:39;115150.97;;;-141.28;39.22
12358;BME280;6243;51.244;6.774;2023-08-01T07:12:05;115150.97;;;-141.28;39.90
12358;BME280;6243;51.244;6.774;2023-08-01T07:14:31;115150.97;;;-141.28;39.29
12358;BME280;6243;51.244;6.774;2023-08-01T07:16:56;115150.97;;;-141.28;39.60
12358;BME280;6243;51.244;6.774;2023-08-01T07:19:23;115150.97;;;-141.28;39.63
12358;BME280;6243;51.244;6.774;2023-08-01T07:21:49;115150.97;;;-141.28;39.88
12358;BME280;6243;51.244;6.774;2023-08-01T07:24:14;115150.97;;;-141.28;39.55
12358;BME280;6243;51.244;6.774;2023-08-01T07:26:40;115150.97;;;-141.28;39.67
12358;BME280;6243;51.244;6.774;2023-08-01T07:29:06;115150.97;;;-141.28;39.79
12358;BME280;6243;51.244;6.774;2023-08-01T07:31:31;115150.97;;;-141.28;39.87
12358;BME280;6243;51.244;6.774;2023-08-01T07:33:56;115150.97;;;-141.28;40.37
12358;BME280;6243;51.244;6.774;2023-08-01T07:36:24;115150.97;;;-141.28;39.32
12358;BME280;6243;51.244;6.774;2023-08-01T07:38:49;115150.97;;;-141.28;40.34
12358;BME280;6243;51.244;6.774;2023-08-01T07:41:15;115150.97;;;-141.28;40.18
12358;BME280;6243;51.244;6.774;2023-08-01T07:43:40;115150.97;;;-141.28;39.83
12358;BME280;6243;51.244;6.774;2023-08-01T07:46:06;115150.97;;;-141.28;39.80
12358;BME280;6243;51.244;6.774;2023-08-01T07:48:31;115150.97;;;-141.28;39.27
12358;BME280;6243;51.244;6.774;2023-08-01T07:50:57;115150.97;;;-141.28;39.91
12358;BME280;6243;51.244;6.774;2023-08-01T07:53:24;115150.97;;;-141.28;39.11
12358;BME280;6243;51.244;6.774;2023-08-01T07:55:51;115150.97;;;-141.28;39.85
12358;BME280;6243;51.244;6.774;2023-08-01T07:58:17;115150.97;;;-141.28;39.44
12358;BME280;6243;51.244;6.774;2023-08-01T08:00:42;115150.97;;;-141.28;39.59
12358;BME280;6243;51.244;6.774;2023-08-01T08:03:08;115150.97;;;-141.28;39.80
12358;BME280;6243;51.244;6.774;2023-08-01T08:05:33;115150.97;;;-141.28;38.86
12358;BME280;6243;51.244;6.774;2023-08-01T08:07:59;115150.97;;;-141.28;38.94
12358;BME280;6243;51.244;6.774;2023-08-01T08:10:26;115150.97;;;-141.28;38.72
12358;BME280;6243;51.244;6.774;2023-08-01T08:12:51;115150.97;;;-141.28;39.80
12358;BME280;6243;51.244;6.774;2023-08-01T08:15:17;115150.97;;;-141.28;39.80
12358;BME280;6243;51.244;6.774;2023-08-01T08:17:42;115150.97;;;-141.28;39.11
12358;BME280;6243;51.244;6.774;2023-08-01T08:20:08;115150.97;;;-141.28;37.77
12358;BME280;6243;51.244;6.774;2023-08-01T08:22:34;115150.97;;;-141.28;38.05
12358;BME280;6243;51.244;6.774;2023-08-01T08:24:59;115150.97;;;-141.28;37.50
12358;BME280;6243;51.244;6.774;2023-08-01T08:27:26;115150.97;;;-141.28;37.50
12358;BME280;6243;51.244;6.774;2023-08-01T08:29:52;115150.97;;;-141.28;37.37
12358;BME280;6243;51.244;6.774;2023-08-01T08:32:17;115150.97;;;-141.28;37.95
12358;BME280;6243;51.244;6.774;2023-08-01T08:34:43;115150.97;;;-141.28;37.67
12358;BME280;6243;51.244;6.774;2023-08-01T08:37:08;115150.97;;;-141.28;37.77
12358;BME280;6243;51.244;6.774;2023-08-01T08:39:34;115150.97;;;-141.28;37.96
12358;BME280;6243;51.244;6.774;2023-08-01T08:42:00;115150.97;;;-141.28;38.08
12358;BME280;6243;51.244;6.774;2023-08-01T08:44:27;115150.97;;;-141.28;37.75
12358;BME280;6243;51.244;6.774;2023-08-01T08:46:53;115150.97;;;-141.28;38.02
12358;BME280;6243;51.244;6.774;2023-08-01T08:49:19;115150.97;;;-141.28;37.70
12358;BME280;6243;51.244;6.774;2023-08-01T08:51:46;115150.97;;;-141.28;37.75
12358;BME280;6243;51.244;6.774;2023-08-01T08:54:13;115150.97;;;-141.28;37.92
12358;BME280;6243;51.244;6.774;2023-08-01T08:56:38;115150.97;;;-141.28;37.90
12358;BME280;6243;51.244;6.774;2023-08-01T08:59:04;115150.97;;;-141.28;37.93
12358;BME280;6243;51.244;6.774;2023-08-01T09:01:32;115150.97;;;-141.28;37.93
12358;BME280;6243;51.244;6.774;2023-08-01T09:03:58;115150.97;;;-141.28;37.90
12358;BME280;6243;51.244;6.774;2023-08-01T09:06:25;115150.97;;;-141.28;37.95
12358;BME280;6243;51.244;6.774;2023-08-01T09:08:57;115150.97;;;-141.28;37.49
12358;BME280;6243;51.244;6.774;2023-08-01T09:11:26;115150.97;;;-141.28;37.47
12358;BME280;6243;51.244;6.774;2023-08-01T09:13:52;115150.97;;;-141.28;37.14
12358;BME280;6243;51.244;6.774;2023-08-01T09:16:18;115150.97;;;-141.28;37.44
12358;BME280;6243;51.244;6.774;2023-08-01T09:18:49;115150.97;;;-141.28;37.73
12358;BME280;6243;51.244;6.774;2023-08-01T09:21:14;115150.97;;;-141.28;36.80
12358;BME280;6243;51.244;6.774;2023-08-01T09:23:42;115150.97;;;-141.28;36.80
12358;BME280;6243;51.244;6.774;2023-08-01T09:26:12;115150.97;;;-141.28;36.39
12358;BME280;6243;51.244;6.774;2023-08-01T09:28:38;115150.97;;;-141.28;35.88
12358;BME280;6243;51.244;6.774;2023-08-01T09:31:03;115150.97;;;-141.28;35.70
12358;BME280;6243;51.244;6.774;2023-08-01T09:33:38;115150.97;;;-141.28;36.10
12358;BME280;6243;51.244;6.774;2023-08-01T09:36:05;115150.97;;;-141.28;36.42
12358;BME280;6243;51.244;6.774;2023-08-01T09:38:33;115150.97;;;-141.28;36.17
12358;BME280;6243;51.244;6.774;2023-08-01T09:40:59;115150.97;;;-141.28;36.62
12358;BME280;6243;51.244;6.774;2023-08-01T09:43:33;115150.97;;;-141.28;35.51
12358;BME280;6243;51.244;6.774;2023-08-01T09:45:58;115150.97;;;-141.28;35.47
12358;BME280;6243;51.244;6.774;2023-08-01T09:48:25;115150.97;;;-141.28;35.21
12358;BME280;6243;51.244;6.774;2023-08-01T09:50:51;115150.97;;;-141.28;35.42
12358;BME280;6243;51.244;6.774;2023-08-01T09:53:18;115150.97;;;-141.28;35.42
12358;BME280;6243;51.244;6.774;2023-08-01T09:55:46;115150.97;;;-141.28;35.26
12358;BME280;6243;51.244;6.774;2023-08-01T09:58:13;115150.97;;;-141.28;35.36
12358;BME280;6243;51.244;6.774;2023-08-01T10:00:39;115150.97;;;-141.28;35.13
12358;BME280;6243;51.244;6.774;2023-08-01T10:03:05;115150.97;;;-141.28;35.36
12358;BME280;6243;51.244;6.774;2023-08-01T10:05:32;115150.97;;;-141.28;35.27
12358;BME280;6243;51.244;6.774;2023-08-01T10:08:00;115150.97;;;-141.28;34.92
12358;BME280;6243;51.244;6.774;2023-08-01T10:10:28;115150.97;;;-141.28;34.95
12358;BME280;6243;51.244;6.774;2023-08-01T10:12:54;115150.97;;;-141.28;34.91
12358;BME280;6243;51.244;6.774;2023-08-01T10:15:21;115150.97;;;-141.28;35.31
12358;BME280;6243;51.244;6.774;2023-08-01T10:17:47;115150.97;;;-141.28;34.99
12358;BME280;6243;51.244;6.774;2023-08-01T10:20:14;115150.97;;;-141.28;34.70
12358;BME280;6243;51.244;6.774;2023-08-01T10:22:41;115150.97;;;-141.28;34.52
12358;BME280;6243;51.244;6.774;2023-08-01T10:25:07;115150.97;;;-141.28;34.24
12358;BME280;6243;51.244;6.774;2023-08-01T10:27:35;115150.97;;;-141.28;34.42
12358;BME280;6243;51.244;6.774;2023-08-01T10:30:02;115150.97;;;-141.28;34.13
12358;BME280;6243;51.244;6.774;2023-08-01T10:32:31;115150.97;;;-141.28;34.16
12358;BME280;6243;51.244;6.774;2023-08-01T10:34:57;115150.97;;;-141.28;34.24
12358;BME280;6243;51.244;6.774;2023-08-01T10:37:22;115150.97;;;-141.28;33.63
12358;BME280;6243;51.244;6.774;2023-08-01T10:39:56;115150.97;;;-141.28;33.98
12358;BME280;6243;51.244;6.774;2023-08-01T10:42:22;115150.97;;;-141.28;34.12
12358;BME280;6243;51.244;6.774;2023-08-01T10:44:49;115150.97;;;-141.28;34.20
12358;BME280;6243;51.244;6.774;2023-08-01T10:47:25;115150.97;;;-141.28;34.20
12358;BME280;6243;51.244;6.774;2023-08-01T10:49:51;115150.97;;;-141.28;34.28
12358;BME280;6243;51.244;6.774;2023-08-01T10:52:17;115150.97;;;-141.28;34.11
12358;BME280;6243;51.244;6.774;2023-08-01T10:54:43;115150.97;;;-141.28;34.34
12358;BME280;6243;51.244;6.774;2023-08-01T10:57:08;115150.97;;;-141.28;34.49
12358;BME280;6243;51.244;6.774;2023-08-01T10:59:40;115150.97;;;-141.28;34.47
12358;BME280;6243;51.244;6.774;2023-08-01T11:02:07;115150.97;;;-141.28;34.79
12358;BME280;6243;51.244;6.774;2023-08-01T11:04:32;115150.97;;;-141.28;34.70
12358;BME280;6243;51.244;6.774;2023-08-01T11:06:58;115150.97;;;-141.28;34.54
12358;BME280;6243;51.244;6.774;2023-08-01T11:09:25;115150.97;;;-141.28;34.57
12358;BME280;6243;51.244;6.774;2023-08-01T11:11:53;115150.97;;;-141.28;34.29
12358;BME280;6243;51.244;6.774;2023-08-01T11:14:21;115150.97;;;-141.28;34.06
12358;BME280;6243;51.244;6.774;2023-08-01T11:16:48;115150.97;;;-141.28;33.50
12358;BME280;6243;51.244;6.774;2023-08-01T11:19:23;115150.97;;;-141.28;32.97
12358;BME280;6243;51.244;6.774;2023-08-01T11:21:49;115150.97;;;-141.28;33.46
12358;BME280;6243;51.244;6.774;2023-08-01T11:24:15;115150.97;;;-141.28;33.50
12358;BME280;6243;51.244;6.774;2023-08-01T11:26:42;115150.97;;;-141.28;32.95
12358;BME280;6243;51.244;6.774;2023-08-01T11:29:07;115150.97;;;-141.28;32.90
12358;BME280;6243;51.244;6.774;2023-08-01T11:31:33;115150.97;;;-141.28;33.20
12358;BME280;6243;51.244;6.774;2023-08-01T11:33:58;115150.97;;;-141.28;33.66
12358;BME280;6243;51.244;6.774;2023-08-01T11:36:27;115150.97;;;-141.28;34.73
12358;BME280;6243;51.244;6.774;2023-08-01T11:38:53;115150.97;;;-141.28;35.25
12358;BME280;6243;51.244;6.774;2023-08-01T11:41:19;115150.97;;;-141.28;35.14
12358;BME280;6243;51.244;6.774;2023-08-01T11:43:45;115150.97;;;-141.28;35.89
12358;BME280;6243;51.244;6.774;2023-08-01T11:46:10;115150.97;;;-141.28;35.64
12358;BME280;6243;51.244;6.774;2023-08-01T11:48:36;115150.97;;;-141.28;35.55
12358;BME280;6243;51.244;6.774;2023-08-01T11:51:02;115150.97;;;-141.28;35.81
12358;BME280;6243;51.244;6.774;2023-08-01T11:53:29;115150.97;;;-141.28;36.02
12358;BME280;6243;51.244;6.774;2023-08-01T11:55:55;115150.97;;;-141.28;35.55
12358;BME280;6243;51.244;6.774;2023-08-01T11:58:28;115150.97;;;-141.28;35.85
12358;BME280;6243;51.244;6.774;2023-08-01T12:01:01;115150.97;;;-141.28;36.46
12358;BME280;6243;51.244;6.774;2023-08-01T12:03:27;115150.97;;;-141.28;36.43
12358;BME280;6243;51.244;6.774;2023-08-01T12:06:02;115150.97;;;-141.28;35.97
12358;BME280;6243;51.244;6.774;2023-08-01T12:08:31;115150.97;;;-141.28;36.00
12358;BME280;6243;51.244;6.774;2023-08-01T12:10:57;115150.97;;;-141.28;36.27
12358;BME280;6243;51.244;6.774;2023-08-01T12:13:23;115150.97;;;-141.28;36.42
12358;BME280;6243;51.244;6.774;2023-08-01T12:15:49;115150.97;;;-141.28;36.40
12358;BME280;6243;51.244;6.774;2023-08-01T12:18:22;115150.97;;;-141.28;36.30
12358;BME280;6243;51.244;6.774;2023-08-01T12:20:48;115150.97;;;-141.28;36.33
12358;BME280;6243;51.244;6.774;2023-08-01T12:23:14;115150.97;;;-141.28;36.29
12358;BME280;6243;51.244;6.774;2023-08-01T12:25:41;115150.97;;;-141.28;36.32
12358;BME280;6243;51.244;6.774;2023-08-01T12:28:06;115150.97;;;-141.28;36.86
12358;BME280;6243;51.244;6.774;2023-08-01T12:30:32;115150.97;;;-141.28;36.56
12358;BME280;6243;51.244;6.774;2023-08-01T12:32:57;115150.97;;;-141.28;36.73
12358;BME280;6243;51.244;6.774;2023-08-01T12:35:23;115150.97;;;-141.28;36.02